Terminal Aerodrome Forecast
Issued by NWS Dallas/Fort Worth, TX

Home | Current Version | Previous Version | Text Only | Print | Product List | Glossary On
Versions: 1 2 3 4 5 6 7 8 9 10 11 12 13 14 15 16 17 18 19 20 21 22 23 24 25 26 27 28
796
FTUS44 KFWD 251739
TAFDFW
TAF
KDFW 251739Z 2518/2624 09011KT P6SM SCT040 SCT300
     FM260300 12005KT P6SM SCT050
     FM261000 12004KT P6SM SCT022 BKN035
      TEMPO 2612/2616 BKN022
     FM261600 13007KT P6SM SCT025 BKN035=

USA.gov is the U.S. government's official web portal to all federal, state and local government web resources and services.